.
WxDataArchive / Data Records for 2005-12-15
2005-12-14 December 2005 2005-12-16

Data Records for Thursday, 15 December 2005

Time	Temp	Chill	HIndex	Humid	Dewpt	 Wind 	HiWind	WindDir	Rain 	Barom 
-----	----	-----	------	-----	-----	------	------	-------	-----	----- 
00:00	34.9	34.9	34.9	88	31.7	2	5	90	0.00	29.887 
00:05	34.9	34.9	34.9	88	31.7	2	4	112	0.00	29.887 
00:10	34.9	34.9	34.9	88	31.7	2	5	112	0.00	29.887 
00:15	34.9	34.9	34.9	88	31.7	1	5	112	0.00	29.874 
00:20	34.9	34.9	34.9	88	31.7	2	6	90	0.00	29.874 
00:25	34.9	34.9	34.9	88	31.7	2	6	112	0.00	29.874 
00:30	35.0	35.0	35.0	87	31.5	2	5	112	0.00	29.879 
00:35	35.0	35.0	35.0	88	31.8	2	6	112	0.00	29.879 
00:40	35.2	35.2	35.2	88	32.0	1	4	112	0.00	29.879 
00:45	35.2	35.2	35.2	88	32.0	1	4	112	0.00	29.877 
00:50	35.2	35.2	35.2	88	32.0	2	4	90	0.00	29.877 
00:55	35.2	35.2	35.2	88	32.0	1	4	112	0.00	29.877 
01:00	35.2	35.2	35.2	88	32.0	2	4	90	0.00	29.869 
01:05	35.0	35.0	35.0	89	32.1	1	4	112	0.00	29.869 
01:10	35.0	35.0	35.0	89	32.1	1	3	112	0.00	29.869 
01:15	35.0	35.0	35.0	90	32.4	2	4	112	0.00	29.867 
01:20	35.0	35.0	35.0	90	32.4	2	4	90	0.00	29.867 
01:25	35.0	35.0	35.0	90	32.4	2	4	90	0.00	29.867 
01:30	35.0	35.0	35.0	90	32.4	2	5	90	0.00	29.858 
01:35	35.0	35.0	35.0	90	32.4	1	3	112	0.00	29.858 
01:40	35.0	35.0	35.0	91	32.6	1	3	112	0.00	29.858 
01:45	34.9	34.9	34.9	91	32.5	1	3	112	0.00	29.858 
01:50	34.9	34.9	34.9	92	32.8	1	2	112	0.00	29.858 
01:55	34.9	34.9	34.9	92	32.8	1	3	112	0.00	29.858 
02:00	34.9	34.9	34.9	92	32.8	1	3	112	0.00	29.858 
02:05	34.7	34.7	34.7	92	32.6	1	3	112	0.00	29.858 
02:10	34.7	34.7	34.7	92	32.6	1	4	112	0.00	29.858 
02:15	34.7	34.7	34.7	93	32.9	1	4	112	0.00	29.856 
02:20	34.7	34.7	34.7	93	32.9	1	3	135	0.00	29.856 
02:25	34.6	34.6	34.6	93	32.8	1	3	112	0.00	29.856 
02:30	34.6	34.6	34.6	93	32.8	1	3	112	0.00	29.857 
02:35	34.6	34.6	34.6	93	32.8	1	3	135	0.00	29.857 
02:40	34.6	34.6	34.6	93	32.8	0	2	112	0.00	29.857 
02:45	34.6	34.6	34.6	93	32.8	1	2	90	0.00	29.863 
02:50	34.6	34.6	34.6	94	33.1	0	2	112	0.00	29.863 
02:55	34.6	34.6	34.6	94	33.1	1	2	112	0.00	29.863 
03:00	34.6	34.6	34.6	94	33.1	1	3	112	0.00	29.859 
03:05	34.6	34.6	34.6	94	33.1	1	3	112	0.00	29.859 
03:10	34.6	34.6	34.6	94	33.1	1	3	112	0.00	29.859 
03:15	34.6	34.6	34.6	94	33.1	1	2	112	0.00	29.857 
03:20	34.6	34.6	34.6	94	33.1	1	2	112	0.00	29.857 
03:25	34.6	34.6	34.6	94	33.1	1	2	112	0.00	29.857 
03:30	34.6	34.6	34.6	94	33.1	1	4	90	0.00	29.856 
03:35	34.6	34.6	34.6	94	33.1	1	3	112	0.00	29.856 
03:40	34.6	34.6	34.6	94	33.1	0	2	112	0.00	29.856 
03:45	34.6	34.6	34.6	94	33.1	0	2	112	0.00	29.856 
03:50	34.6	34.6	34.6	94	33.1	0	2	112	0.00	29.856 
03:55	34.6	34.6	34.6	94	33.1	1	3	112	0.00	29.856 
04:00	34.6	34.6	34.6	94	33.1	1	2	112	0.00	29.855 
04:05	34.6	34.6	34.6	94	33.1	1	3	112	0.00	29.855 
04:10	34.6	34.6	34.6	94	33.1	1	2	135	0.00	29.855 
04:15	34.6	34.6	34.6	94	33.1	1	3	112	0.00	29.853 
04:20	34.6	34.6	34.6	94	33.1	1	3	112	0.00	29.853 
04:25	34.7	34.7	34.7	94	33.2	1	5	112	0.00	29.853 
04:30	34.6	34.6	34.6	94	33.1	1	2	112	0.00	29.844 
04:35	34.6	34.6	34.6	94	33.1	1	3	112	0.00	29.844 
04:40	34.6	34.6	34.6	95	33.3	1	3	112	0.00	29.844 
04:45	34.6	34.6	34.6	95	33.3	1	3	112	0.00	29.838 
04:50	34.6	34.6	34.6	95	33.3	0	2	112	0.00	29.838 
04:55	34.4	34.4	34.4	95	33.1	0	3	68	0.00	29.838 
05:00	34.4	34.4	34.4	95	33.1	0	1	68	0.00	29.829 
05:05	34.4	34.4	34.4	95	33.1	0	2	45	0.00	29.829 
05:10	34.4	34.4	34.4	95	33.1	0	1	45	0.00	29.829 
05:15	34.4	34.4	34.4	95	33.1	1	2	45	0.00	29.822 
05:20	34.4	34.4	34.4	95	33.1	0	2	45	0.00	29.822 
05:25	34.3	34.3	34.3	95	33.0	0	1	45	0.00	29.822 
05:30	34.3	34.3	34.3	95	33.0	0	2	45	0.00	29.821 
05:35	34.3	34.3	34.3	95	33.0	0	2	45	0.00	29.821 
05:40	34.3	34.3	34.3	95	33.0	0	1	45	0.00	29.821 
05:45	34.3	34.3	34.3	95	33.0	0	1	45	0.00	29.816 
05:50	34.3	34.3	34.3	95	33.0	0	1	45	0.00	29.816 
05:55	34.3	34.3	34.3	95	33.0	0	0	---	0.00	29.816 
06:00	34.3	34.3	34.3	95	33.0	0	2	45	0.00	29.814 
06:05	34.3	34.3	34.3	95	33.0	0	2	112	0.00	29.814 
06:10	34.3	34.3	34.3	95	33.0	1	2	112	0.00	29.814 
06:15	34.3	34.3	34.3	95	33.0	0	2	112	0.00	29.805 
06:20	34.3	34.3	34.3	95	33.0	0	2	135	0.00	29.805 
06:25	34.1	34.1	34.1	95	32.8	0	2	135	0.00	29.805 
06:30	34.1	34.1	34.1	95	32.8	1	2	135	0.00	29.805 
06:35	34.1	34.1	34.1	95	32.8	1	2	135	0.00	29.805 
06:40	34.1	34.1	34.1	95	32.8	1	3	112	0.00	29.805 
06:45	34.0	34.0	34.0	95	32.7	0	2	292	0.00	29.809 
06:50	34.0	34.0	34.0	95	32.7	1	2	68	0.00	29.809 
06:55	34.0	34.0	34.0	95	32.7	0	1	68	0.00	29.809 
07:00	34.0	34.0	34.0	95	32.7	0	2	68	0.00	29.808 
07:05	34.0	34.0	34.0	95	32.7	0	1	68	0.00	29.808 
07:10	34.0	34.0	34.0	95	32.7	0	1	68	0.00	29.808 
07:15	34.0	34.0	34.0	95	32.7	0	1	68	0.00	29.804 
07:20	34.0	34.0	34.0	95	32.7	0	1	45	0.00	29.804 
07:25	34.0	34.0	34.0	95	32.7	0	1	45	0.00	29.804 
07:30	34.0	34.0	34.0	95	32.7	0	1	45	0.00	29.792 
07:35	34.0	34.0	34.0	95	32.7	0	1	45	0.00	29.792 
07:40	34.0	34.0	34.0	95	32.7	0	1	45	0.00	29.792 
07:45	34.0	34.0	34.0	95	32.7	0	1	45	0.00	29.797 
07:50	34.0	34.0	34.0	95	32.7	0	1	45	0.00	29.797 
07:55	33.8	33.8	33.8	95	32.5	0	1	45	0.00	29.797 
08:00	33.8	33.8	33.8	95	32.5	0	1	45	0.00	29.791 
08:05	33.8	33.8	33.8	95	32.5	0	0	---	0.00	29.791 
08:10	33.8	33.8	33.8	95	32.5	0	0	---	0.00	29.791 
08:15	33.7	33.7	33.7	95	32.4	0	0	---	0.00	29.787 
08:20	33.7	33.7	33.7	95	32.4	0	0	---	0.00	29.787 
08:25	33.7	33.7	33.7	95	32.4	0	1	45	0.00	29.787 
08:30	33.7	33.7	33.7	95	32.4	0	1	45	0.00	29.779 
08:35	33.7	33.7	33.7	95	32.4	0	1	45	0.00	29.779 
08:40	33.7	33.7	33.7	95	32.4	0	0	---	0.00	29.779 
08:45	33.7	33.7	33.7	95	32.4	0	1	45	0.00	29.776 
08:50	33.7	33.7	33.7	95	32.4	0	0	---	0.00	29.776 
08:55	33.7	33.7	33.7	95	32.4	0	1	45	0.00	29.776 
09:00	33.7	33.7	33.7	95	32.4	0	1	45	0.00	29.774 
09:05	33.7	33.7	33.7	95	32.4	0	1	45	0.00	29.774 
09:10	33.7	33.7	33.7	95	32.4	0	1	45	0.00	29.774 
09:15	33.7	33.7	33.7	95	32.4	0	1	45	0.00	29.773 
09:20	33.7	33.7	33.7	95	32.4	0	1	45	0.00	29.773 
09:25	33.5	33.5	33.5	95	32.2	0	1	45	0.00	29.773 
09:30	33.7	33.7	33.7	95	32.4	0	0	---	0.00	29.773 
09:35	33.7	33.7	33.7	95	32.4	0	0	---	0.00	29.773 
09:40	33.7	33.7	33.7	95	32.4	0	0	---	0.00	29.773 
09:45	33.7	33.7	33.7	95	32.4	0	1	45	0.00	29.773 
09:50	33.7	33.7	33.7	95	32.4	0	0	---	0.00	29.773 
09:55	33.7	33.7	33.7	95	32.4	0	0	---	0.00	29.773 
10:00	33.7	33.7	33.7	95	32.4	0	0	---	0.00	29.768 
10:05	33.7	33.7	33.7	95	32.4	0	1	45	0.00	29.768 
10:10	33.5	33.5	33.5	95	32.2	0	0	---	0.00	29.768 
10:15	33.5	33.5	33.5	95	32.2	0	0	---	0.00	29.770 
10:20	33.5	33.5	33.5	95	32.2	0	1	45	0.00	29.770 
10:25	33.4	33.4	33.4	95	32.1	0	0	---	0.00	29.770 
10:30	33.2	33.2	33.2	95	31.9	0	0	---	0.00	29.763 
10:35	33.2	33.2	33.2	95	31.9	0	0	---	0.00	29.763 
10:40	33.2	33.2	33.2	95	31.9	0	1	45	0.00	29.763 
10:45	33.2	33.2	33.2	95	31.9	0	1	45	0.00	29.759 
10:50	33.4	33.4	33.4	95	32.1	0	0	---	0.00	29.759 
10:55	33.4	33.4	33.4	95	32.1	0	1	45	0.00	29.759 
11:00	33.5	33.5	33.5	95	32.2	0	1	45	0.00	29.754 
11:05	33.5	33.5	33.5	95	32.2	0	2	45	0.00	29.754 
11:10	33.4	33.4	33.4	95	32.1	0	1	45	0.00	29.754 
11:15	33.4	33.4	33.4	95	32.1	0	0	---	0.00	29.740 
11:20	33.5	33.5	33.5	95	32.2	0	1	45	0.00	29.740 
11:25	33.5	33.5	33.5	95	32.2	0	1	45	0.00	29.740 
11:30	33.5	33.5	33.5	95	32.2	0	2	22	0.00	29.732 
11:35	33.5	33.5	33.5	95	32.2	0	1	22	0.00	29.732 
11:40	33.4	33.4	33.4	95	32.1	0	1	22	0.00	29.732 
11:45	33.2	33.2	33.2	95	31.9	0	1	22	0.00	29.719 
11:50	33.2	33.2	33.2	95	31.9	0	1	22	0.00	29.719 
11:55	33.2	33.2	33.2	95	31.9	0	1	22	0.00	29.719 
12:00	33.2	33.2	33.2	95	31.9	0	1	22	0.00	29.709 
12:05	33.2	33.2	33.2	95	31.9	0	2	22	0.00	29.709 
12:10	33.2	33.2	33.2	95	31.9	0	1	22	0.00	29.709 
12:15	33.1	33.1	33.1	95	31.8	1	3	22	0.00	29.701 
12:20	33.1	33.1	33.1	95	31.8	0	2	248	0.00	29.701 
12:25	33.1	33.1	33.1	95	31.8	0	1	248	0.00	29.701 
12:30	33.1	33.1	33.1	95	31.8	0	1	248	0.00	29.691 
12:35	33.1	33.1	33.1	95	31.8	0	1	248	0.00	29.691 
12:40	33.1	33.1	33.1	95	31.8	0	1	248	0.00	29.691 
12:45	33.1	33.1	33.1	95	31.8	0	1	248	0.00	29.680 
12:50	33.2	33.2	33.2	95	31.9	0	1	248	0.00	29.680 
12:55	33.2	33.2	33.2	95	31.9	0	1	248	0.00	29.680 
13:00	33.2	33.2	33.2	94	31.7	0	1	248	0.00	29.673 
13:05	33.2	33.2	33.2	94	31.7	0	2	248	0.00	29.673 
13:10	33.1	33.1	33.1	94	31.6	0	2	248	0.00	29.673 
13:15	33.1	33.1	33.1	94	31.6	0	2	270	0.00	29.665 
13:20	33.1	33.1	33.1	94	31.6	1	3	248	0.00	29.665 
13:25	33.1	33.1	33.1	94	31.6	1	3	225	0.00	29.665 
13:30	33.1	33.1	33.1	94	31.6	1	3	270	0.00	29.662 
13:35	33.1	33.1	33.1	94	31.6	1	2	270	0.00	29.662 
13:40	33.1	33.1	33.1	94	31.6	0	1	270	0.00	29.662 
13:45	33.1	33.1	33.1	94	31.6	0	2	292	0.00	29.657 
13:50	33.1	33.1	33.1	94	31.6	0	2	292	0.00	29.657 
13:55	33.1	33.1	33.1	94	31.6	1	2	225	0.00	29.657 
14:00	33.1	33.1	33.1	94	31.6	1	3	225	0.00	29.650 
14:05	33.1	33.1	33.1	93	31.3	0	2	225	0.00	29.650 
14:10	33.1	33.1	33.1	93	31.3	1	2	270	0.00	29.650 
14:15	33.1	33.1	33.1	93	31.3	0	1	270	0.00	29.649 
14:20	33.1	33.1	33.1	93	31.3	1	2	270	0.00	29.649 
14:25	33.1	33.1	33.1	93	31.3	1	2	248	0.00	29.649 
14:30	33.1	33.1	33.1	93	31.3	0	2	270	0.00	29.647 
14:35	33.1	33.1	33.1	93	31.3	0	2	270	0.00	29.647 
14:40	33.1	33.1	33.1	93	31.3	1	3	248	0.00	29.647 
14:45	33.1	33.1	33.1	93	31.3	1	2	248	0.00	29.647 
14:50	33.1	33.1	33.1	93	31.3	1	2	248	0.00	29.647 
14:55	32.9	32.9	32.9	93	31.1	1	2	270	0.00	29.647 
15:00	32.9	32.9	32.9	93	31.1	1	2	270	0.00	29.646 
15:05	33.1	33.1	33.1	93	31.3	0	1	270	0.00	29.646 
15:10	33.1	33.1	33.1	93	31.3	0	2	270	0.00	29.646 
15:15	33.1	33.1	33.1	93	31.3	0	2	270	0.00	29.647 
15:20	33.1	33.1	33.1	93	31.3	0	2	270	0.00	29.647 
15:25	33.2	33.2	33.2	93	31.4	0	2	270	0.00	29.647 
15:30	33.2	33.2	33.2	93	31.4	0	2	248	0.00	29.647 
15:35	33.4	33.4	33.4	93	31.6	1	2	248	0.00	29.647 
15:40	33.4	33.4	33.4	93	31.6	1	3	248	0.00	29.647 
15:45	33.5	33.5	33.5	93	31.7	0	1	248	0.00	29.646 
15:50	33.4	33.4	33.4	93	31.6	1	2	248	0.00	29.646 
15:55	33.4	33.4	33.4	92	31.3	1	2	248	0.00	29.646 
16:00	33.4	33.4	33.4	92	31.3	1	3	248	0.00	29.652 
16:05	33.4	33.4	33.4	92	31.3	0	2	248	0.00	29.652 
16:10	33.4	33.4	33.4	92	31.3	1	2	248	0.00	29.652 
16:15	33.4	33.4	33.4	92	31.3	0	2	248	0.00	29.649 
16:20	33.5	33.5	33.5	92	31.4	0	2	225	0.00	29.649 
16:25	33.5	33.5	33.5	92	31.4	1	3	248	0.00	29.649 
16:30	33.8	33.8	33.8	92	31.7	1	3	248	0.00	29.649 
16:35	33.8	33.8	33.8	92	31.7	1	3	248	0.00	29.649 
16:40	33.8	33.8	33.8	91	31.5	1	5	248	0.00	29.649 
16:45	33.8	33.8	33.8	91	31.5	1	2	248	0.00	29.650 
16:50	33.7	33.7	33.7	91	31.4	1	3	248	0.00	29.650 
16:55	33.4	33.4	33.4	90	30.8	1	4	248	0.00	29.650 
17:00	33.2	33.2	33.2	90	30.6	2	3	248	0.00	29.663 
17:05	33.1	33.1	33.1	91	30.8	2	5	248	0.00	29.663 
17:10	32.9	32.9	32.9	91	30.6	1	4	248	0.00	29.663 
17:15	32.8	32.8	32.8	91	30.5	1	3	248	0.00	29.664 
17:20	32.7	32.7	32.7	91	30.4	1	3	248	0.00	29.664 
17:25	32.5	32.5	32.5	91	30.2	2	9	248	0.00	29.664 
17:30	32.5	32.5	32.5	91	30.2	3	9	248	0.00	29.668 
17:35	32.4	32.4	32.4	91	30.1	3	7	248	0.00	29.668 
17:40	32.4	32.4	32.4	91	30.1	2	5	248	0.00	29.668 
17:45	32.2	32.2	32.2	91	29.9	2	6	248	0.00	29.676 
17:50	32.1	32.1	32.1	91	29.8	2	7	270	0.00	29.676 
17:55	31.9	31.9	31.9	91	29.6	2	7	248	0.00	29.676 
18:00	31.9	31.9	31.9	91	29.6	3	5	248	0.00	29.680 
18:05	31.9	31.9	31.9	91	29.6	3	6	248	0.00	29.680 
18:10	32.1	32.1	32.1	91	29.8	2	11	248	0.00	29.680 
18:15	31.9	28.0	31.9	91	29.6	4	11	248	0.00	29.689 
18:20	31.9	31.9	31.9	91	29.6	3	7	248	0.00	29.689 
18:25	31.9	31.9	31.9	91	29.6	3	7	248	0.00	29.689 
18:30	31.8	31.8	31.8	91	29.5	3	9	248	0.00	29.698 
18:35	31.8	31.8	31.8	91	29.5	2	4	248	0.00	29.698 
18:40	31.8	31.8	31.8	92	29.7	1	4	248	0.00	29.698 
18:45	31.9	31.9	31.9	92	29.8	1	4	248	0.00	29.695 
18:50	31.9	31.9	31.9	92	29.8	1	3	248	0.00	29.695 
18:55	31.9	31.9	31.9	92	29.8	1	3	248	0.00	29.695 
19:00	32.1	32.1	32.1	92	30.0	1	3	248	0.00	29.695 
19:05	32.1	32.1	32.1	92	30.0	1	2	248	0.00	29.695 
19:10	32.2	32.2	32.2	91	29.9	1	3	248	0.00	29.695 
19:15	32.2	32.2	32.2	91	29.9	2	4	248	0.00	29.695 
19:20	32.2	32.2	32.2	91	29.9	2	8	248	0.00	29.695 
19:25	32.5	32.5	32.5	90	29.9	3	6	248	0.00	29.695 
19:30	32.5	32.5	32.5	90	29.9	2	6	248	0.00	29.698 
19:35	32.7	32.7	32.7	90	30.1	2	6	248	0.00	29.698 
19:40	32.7	32.7	32.7	90	30.1	1	3	248	0.00	29.698 
19:45	32.7	32.7	32.7	90	30.1	1	3	248	0.00	29.698 
19:50	32.7	32.7	32.7	90	30.1	2	4	248	0.00	29.698 
19:55	32.7	32.7	32.7	89	29.8	3	7	248	0.00	29.698 
20:00	32.8	32.8	32.8	90	30.2	2	5	248	0.00	29.702 
20:05	32.8	32.8	32.8	91	30.5	2	4	248	0.00	29.702 
20:10	32.8	32.8	32.8	89	29.9	2	4	248	0.01	29.702 
20:15	32.9	32.9	32.9	90	30.3	1	4	225	0.00	29.699 
20:20	32.9	32.9	32.9	90	30.3	1	4	225	0.00	29.699 
20:25	32.9	32.9	32.9	90	30.3	1	4	225	0.00	29.699 
20:30	33.1	33.1	33.1	90	30.5	2	5	248	0.00	29.703 
20:35	33.1	33.1	33.1	89	30.2	2	5	248	0.00	29.703 
20:40	33.1	33.1	33.1	89	30.2	2	4	248	0.00	29.703 
20:45	33.1	33.1	33.1	89	30.2	1	3	248	0.00	29.699 
20:50	33.1	33.1	33.1	89	30.2	2	7	248	0.00	29.699 
20:55	32.9	32.9	32.9	89	30.0	2	4	248	0.00	29.699 
21:00	32.9	32.9	32.9	90	30.3	1	3	248	0.00	29.709 
21:05	32.8	32.8	32.8	90	30.2	1	4	248	0.00	29.709 
21:10	32.8	32.8	32.8	91	30.5	2	4	248	0.00	29.709 
21:15	32.8	32.8	32.8	91	30.5	2	6	248	0.00	29.710 
21:20	32.8	32.8	32.8	91	30.5	2	5	248	0.00	29.710 
21:25	32.8	32.8	32.8	91	30.5	2	4	248	0.00	29.710 
21:30	32.8	32.8	32.8	91	30.5	2	4	248	0.00	29.712 
21:35	32.8	32.8	32.8	91	30.5	2	4	248	0.00	29.712 
21:40	32.8	32.8	32.8	91	30.5	2	6	248	0.00	29.712 
21:45	32.8	32.8	32.8	90	30.2	2	7	248	0.00	29.712 
21:50	32.7	32.7	32.7	90	30.1	2	4	248	0.00	29.712 
21:55	32.5	32.5	32.5	89	29.6	2	4	248	0.00	29.712 
22:00	32.5	32.5	32.5	89	29.6	2	5	248	0.00	29.718 
22:05	32.5	32.5	32.5	89	29.6	2	5	248	0.00	29.718 
22:10	32.4	32.4	32.4	88	29.3	2	4	225	0.00	29.718 
22:15	32.4	32.4	32.4	87	29.0	3	7	248	0.00	29.720 
22:20	32.4	32.4	32.4	86	28.7	3	6	248	0.00	29.720 
22:25	32.5	32.5	32.5	86	28.8	2	5	248	0.00	29.720 
22:30	32.5	32.5	32.5	86	28.8	2	6	248	0.00	29.720 
22:35	32.5	32.5	32.5	85	28.5	2	7	248	0.00	29.720 
22:40	32.4	32.4	32.4	84	28.1	2	4	248	0.00	29.720 
22:45	32.2	32.2	32.2	83	27.6	2	4	248	0.00	29.720 
22:50	32.2	32.2	32.2	84	27.9	2	6	248	0.00	29.720 
22:55	32.2	32.2	32.2	84	27.9	1	4	248	0.00	29.720 
23:00	32.1	32.1	32.1	84	27.8	1	3	248	0.00	29.721 
23:05	32.1	32.1	32.1	84	27.8	1	3	248	0.00	29.721 
23:10	32.1	32.1	32.1	84	27.8	2	5	248	0.00	29.721 
23:15	32.2	32.2	32.2	84	27.9	2	7	248	0.00	29.724 
23:20	32.4	32.4	32.4	83	27.8	3	9	248	0.00	29.724 
23:25	32.2	32.2	32.2	83	27.6	3	5	248	0.00	29.724 
23:30	31.9	31.9	31.9	83	27.3	2	5	248	0.00	29.724 
23:35	31.9	31.9	31.9	84	27.6	3	9	248	0.00	29.724 
23:40	31.9	31.9	31.9	84	27.6	2	9	248	0.00	29.724 
23:45	31.9	31.9	31.9	84	27.6	2	4	248	0.00	29.715 
23:50	31.8	31.8	31.8	84	27.5	3	6	248	0.00	29.715 
23:55	31.8	31.8	31.8	84	27.5	2	6	248	0.00	29.715 

CoCoRaHS
IN-AL-39
A2 Web Hosting
Creative Commons License
GoDaddy
Look for:

loaded 2017-10-19 12:36:24 • last modified 2010-11-18 10:43:29
Privacy PolicyDisclaimer
• wx.awcolley.com is powered by PmWiki v.2002016 •
• all content (unless otherwise noted) © 2017 A W Colley